Time;durP1;ratioP1;P1;durP2;ratioP2;P2;SDS_P1;SDS_P2;PMS_P1;PMS_P2;Temp;Humidity;BMP_temperature;BMP_pressure;BME280_temperature;BME280_humidity;BME280_pressure;Samples;Min_cycle;Max_cycle;Signal;HPM_P1;HPM_P2
2021/12/17 00:01:42;;;;;;;37.08;23.58;;;5.50;99.90;;;;;;5033812;28;20386;-70
2021/12/17 00:04:24;;;;;;;40.30;25.20;;;5.50;99.90;;;;;;5033464;28;20482;-71
2021/12/17 00:06:50;;;;;;;42.47;24.98;;;5.40;99.90;;;;;;5033605;28;20041;-71
2021/12/17 00:09:16;;;;;;;43.88;25.65;;;5.50;99.90;;;;;;5033874;28;20030;-71
2021/12/17 00:11:41;;;;;;;45.97;25.75;;;5.50;99.90;;;;;;5033795;28;20384;-71
2021/12/17 00:14:08;;;;;;;42.17;25.48;;;5.50;99.90;;;;;;5032372;28;20068;-70
2021/12/17 00:16:38;;;;;;;47.92;27.58;;;5.50;99.90;;;;;;5033784;28;20040;-70
2021/12/17 00:19:39;;;;;;;45.70;26.65;;;5.50;99.90;;;;;;5032190;28;20108;-72
2021/12/17 00:49:19;;;;;;;61.25;32.67;;;5.60;99.90;;;;;;5036855;28;20029;-69
2021/12/17 00:54:31;;;;;;;58.58;31.83;;;5.60;99.90;;;;;;5036712;28;20053;-72
2021/12/17 00:57:00;;;;;;;65.03;31.98;;;5.60;99.90;;;;;;5036702;28;20036;-73
2021/12/17 00:59:26;;;;;;;59.45;32.05;;;5.60;99.90;;;;;;5035371;28;20517;-69
2021/12/17 01:01:55;;;;;;;59.80;31.80;;;5.60;99.90;;;;;;5035284;28;20029;-71
2021/12/17 01:04:21;;;;;;;62.90;32.70;;;5.60;99.90;;;;;;5051930;28;20025;-69
2021/12/17 01:06:48;;;;;;;55.00;30.58;;;5.60;99.90;;;;;;5036563;28;20379;-71
2021/12/17 01:09:16;;;;;;;62.60;31.73;;;5.60;99.90;;;;;;5035211;28;20029;-71
2021/12/17 01:11:42;;;;;;;63.42;32.55;;;5.70;99.90;;;;;;5036220;28;20107;-73
2021/12/17 01:14:09;;;;;;;60.08;32.15;;;5.70;99.90;;;;;;5035914;28;20064;-70
2021/12/17 01:16:35;;;;;;;60.03;31.63;;;5.70;99.90;;;;;;5034811;28;20108;-70
2021/12/17 01:42:49;;;;;;;45.05;26.52;;;5.50;99.90;;;;;;5035815;28;20036;-70
2021/12/17 01:45:15;;;;;;;46.53;27.38;;;5.50;99.90;;;;;;5035692;28;20415;-69
2021/12/17 01:47:41;;;;;;;43.25;26.65;;;5.50;99.90;;;;;;5035722;28;20072;-68
2021/12/17 01:56:04;;;;;;;46.10;28.02;;;5.50;99.90;;;;;;5035434;28;20037;-71
2021/12/17 02:01:14;;;;;;;45.63;28.48;;;5.60;99.90;;;;;;5035883;28;20033;-70
2021/12/17 02:03:40;;;;;;;44.47;27.73;;;5.60;99.90;;;;;;5035535;28;20033;-69
2021/12/17 02:06:06;;;;;;;39.95;25.65;;;5.60;99.90;;;;;;5035270;28;20028;-69
2021/12/17 02:08:32;;;;;;;44.97;28.08;;;5.60;99.90;;;;;;5035054;28;20025;-70
2021/12/17 02:32:57;;;;;;;32.03;22.13;;;5.60;99.90;;;;;;5035192;28;20383;-70
2021/12/17 02:37:53;;;;;;;31.17;21.65;;;5.60;99.90;;;;;;5034829;28;20056;-69
2021/12/17 02:45:48;;;;;;;29.50;21.10;;;5.60;99.90;;;;;;5034640;28;20491;-69
2021/12/17 02:48:14;;;;;;;34.20;22.65;;;5.60;99.90;;;;;;5034596;28;20033;-70
2021/12/17 02:50:47;;;;;;;39.22;24.13;;;5.60;99.90;;;;;;5034298;28;20037;-70
2021/12/17 02:53:14;;;;;;;33.70;23.65;;;5.60;99.90;;;;;;5034660;28;20041;-70
2021/12/17 02:55:46;;;;;;;35.88;24.05;;;5.60;99.90;;;;;;5033248;28;20057;-70
2021/12/17 02:58:12;;;;;;;39.00;24.63;;;5.60;99.90;;;;;;5033273;28;20452;-70
2021/12/17 03:00:40;;;;;;;36.22;24.92;;;5.60;99.90;;;;;;5034333;28;20100;-70
2021/12/17 03:03:08;;;;;;;37.83;25.25;;;5.60;99.90;;;;;;5034239;28;20075;-69
2021/12/17 03:05:36;;;;;;;38.10;24.58;;;5.60;99.90;;;;;;5034410;28;20025;-70
2021/12/17 03:08:02;;;;;;;34.80;23.75;;;5.60;99.90;;;;;;5033359;28;20510;-72
2021/12/17 03:10:27;;;;;;;36.83;25.70;;;5.50;99.90;;;;;;5034213;28;20025;-71
2021/12/17 03:12:59;;;;;;;37.17;24.42;;;5.50;99.90;;;;;;5034012;28;20049;-71
2021/12/17 03:23:42;;;;;;;36.03;23.85;;;5.50;99.90;;;;;;5034244;28;20060;-71
2021/12/17 03:26:16;;;;;;;33.80;23.02;;;5.40;99.90;;;;;;5033144;28;20026;-73
2021/12/17 03:28:46;;;;;;;34.20;23.08;;;5.40;99.90;;;;;;5034077;28;20471;-70
2021/12/17 03:31:13;;;;;;;33.83;22.77;;;5.40;99.90;;;;;;5032565;28;20037;-69
2021/12/17 03:33:42;;;;;;;34.63;23.38;;;5.40;99.90;;;;;;5033827;28;20036;-69
2021/12/17 03:36:15;;;;;;;35.88;23.77;;;5.40;99.90;;;;;;5034167;28;20052;-70
2021/12/17 03:38:42;;;;;;;34.35;22.63;;;5.40;99.90;;;;;;5033100;28;20155;-69
2021/12/17 03:43:40;;;;;;;37.42;24.30;;;5.40;99.90;;;;;;5034153;28;20052;-70
2021/12/17 03:46:06;;;;;;;31.40;21.48;;;5.50;99.90;;;;;;5033972;28;20060;-71
2021/12/17 03:48:35;;;;;;;34.03;21.88;;;5.40;99.90;;;;;;5032729;28;20033;-70
2021/12/17 03:51:01;;;;;;;31.35;21.40;;;5.40;99.90;;;;;;5033951;28;20043;-73
2021/12/17 03:53:27;;;;;;;32.78;21.15;;;5.50;99.90;;;;;;5033728;28;20113;-74
2021/12/17 03:55:52;;;;;;;33.53;22.70;;;5.50;99.90;;;;;;5033551;28;20041;-74
2021/12/17 03:58:19;;;;;;;31.98;21.75;;;5.50;99.90;;;;;;5032378;28;20034;-71
2021/12/17 04:00:45;;;;;;;34.15;22.73;;;5.50;99.90;;;;;;5032380;28;20459;-73
2021/12/17 04:03:11;;;;;;;32.53;22.25;;;5.50;99.90;;;;;;5032339;28;20029;-73
2021/12/17 04:05:36;;;;;;;35.67;22.85;;;5.50;99.90;;;;;;5033251;28;20029;-75
2021/12/17 04:08:02;;;;;;;32.97;23.02;;;5.50;99.90;;;;;;5033320;28;20483;-74
2021/12/17 04:10:34;;;;;;;35.13;23.23;;;5.50;99.90;;;;;;5033399;28;20479;-71
2021/12/17 04:13:14;;;;;;;32.88;22.55;;;5.50;99.90;;;;;;5031967;28;20060;-71
2021/12/17 04:15:42;;;;;;;31.45;21.73;;;5.50;99.90;;;;;;5032877;28;20042;-71
2021/12/17 04:18:10;;;;;;;32.33;21.52;;;5.50;99.90;;;;;;5032231;28;20116;-72
2021/12/17 04:20:36;;;;;;;28.48;19.92;;;5.50;99.90;;;;;;5036976;28;20375;-72
2021/12/17 04:23:03;;;;;;;30.20;20.95;;;5.50;99.90;;;;;;5037551;28;20040;-69
2021/12/17 04:25:29;;;;;;;31.40;20.27;;;5.60;99.90;;;;;;5037407;28;20029;-69
2021/12/17 04:27:57;;;;;;;30.02;21.05;;;5.50;99.90;;;;;;5035852;28;20112;-68
2021/12/17 04:30:24;;;;;;;31.55;21.20;;;5.50;99.90;;;;;;5037173;28;20109;-68
2021/12/17 04:32:50;;;;;;;28.30;20.23;;;5.50;99.90;;;;;;5035830;28;20079;-69
2021/12/17 04:35:16;;;;;;;28.58;20.05;;;5.50;99.90;;;;;;5037298;28;20025;-69
2021/12/17 04:37:41;;;;;;;28.55;20.50;;;5.50;99.90;;;;;;5037390;28;20104;-69
2021/12/17 04:40:07;;;;;;;28.10;20.95;;;5.50;99.90;;;;;;5037086;28;20398;-69
2021/12/17 04:44:59;;;;;;;30.25;23.15;;;5.50;99.90;;;;;;5036940;28;20088;-69
2021/12/17 04:58:21;;;;;;;27.80;20.55;;;5.50;99.90;;;;;;5036520;28;20041;-69
2021/12/17 05:00:47;;;;;;;25.58;19.27;;;5.50;99.90;;;;;;5036487;28;20030;-68
2021/12/17 05:03:13;;;;;;;25.42;18.80;;;5.50;99.90;;;;;;5036487;28;20029;-71
2021/12/17 05:05:39;;;;;;;25.75;19.08;;;5.50;99.90;;;;;;5035338;28;20043;-69
2021/12/17 05:08:11;;;;;;;27.30;19.33;;;5.50;99.90;;;;;;5036284;28;20021;-69
2021/12/17 05:11:00;;;;;;;25.92;18.38;;;5.50;99.90;;;;;;5036281;28;20519;-75
2021/12/17 05:19:03;;;;;;;27.38;19.65;;;5.50;99.90;;;;;;5036286;28;20084;-70
2021/12/17 05:21:29;;;;;;;26.00;19.35;;;5.50;99.90;;;;;;5035173;28;20099;-69
2021/12/17 05:23:54;;;;;;;26.77;20.23;;;5.50;99.90;;;;;;5036575;28;20025;-69
2021/12/17 05:26:21;;;;;;;26.35;20.80;;;5.50;99.90;;;;;;5036456;28;20423;-68
2021/12/17 05:28:48;;;;;;;27.02;20.35;;;5.50;99.90;;;;;;5036436;28;20432;-69
2021/12/17 05:31:16;;;;;;;29.27;21.83;;;5.50;99.90;;;;;;5034208;28;20025;-70
2021/12/17 05:33:42;;;;;;;30.27;22.50;;;5.50;99.90;;;;;;5036228;28;20033;-70
2021/12/17 05:36:08;;;;;;;25.02;19.20;;;5.50;99.90;;;;;;5034510;28;20057;-70
2021/12/17 05:38:33;;;;;;;25.45;18.88;;;5.50;99.90;;;;;;5035727;28;20057;-72
2021/12/17 05:40:59;;;;;;;24.88;18.63;;;5.50;99.90;;;;;;5035519;28;20026;-71
2021/12/17 05:43:25;;;;;;;27.60;19.60;;;5.50;99.90;;;;;;5034301;28;20064;-69
2021/12/17 05:48:24;;;;;;;25.10;18.02;;;5.50;99.90;;;;;;5035598;28;20022;-69
2021/12/17 05:50:52;;;;;;;27.75;18.73;;;5.50;99.90;;;;;;5035521;28;20467;-69
2021/12/17 05:53:19;;;;;;;24.30;18.77;;;5.50;99.90;;;;;;5034177;28;20025;-68
2021/12/17 05:55:44;;;;;;;23.38;18.05;;;5.50;99.90;;;;;;5034247;28;20033;-70
2021/12/17 05:58:11;;;;;;;21.63;16.92;;;5.50;99.90;;;;;;5035318;28;20033;-65
2021/12/17 06:00:39;;;;;;;21.27;16.50;;;5.50;99.90;;;;;;5035928;28;20100;-65
2021/12/17 06:03:05;;;;;;;22.67;16.63;;;5.50;99.90;;;;;;5035138;28;20053;-67
2021/12/17 06:05:31;;;;;;;22.10;15.63;;;5.50;99.90;;;;;;5035239;28;20061;-67
2021/12/17 06:07:58;;;;;;;23.20;16.98;;;5.50;99.90;;;;;;5035187;28;20460;-66
2021/12/17 06:10:24;;;;;;;24.17;17.85;;;5.50;99.90;;;;;;5035201;28;20104;-66
2021/12/17 06:12:49;;;;;;;21.13;17.08;;;5.50;99.90;;;;;;5035356;28;20459;-66
2021/12/17 06:15:17;;;;;;;18.95;14.45;;;5.50;99.90;;;;;;5034860;28;20033;-66
2021/12/17 06:17:44;;;;;;;21.50;15.43;;;5.50;99.90;;;;;;5034089;28;20040;-67
2021/12/17 06:20:12;;;;;;;20.17;14.88;;;5.50;99.90;;;;;;5033840;28;20371;-67
2021/12/17 06:22:38;;;;;;;18.10;15.23;;;5.50;99.90;;;;;;5035892;28;20350;-68
2021/12/17 06:25:05;;;;;;;18.15;13.93;;;5.50;99.90;;;;;;5034972;28;20034;-68
2021/12/17 06:27:31;;;;;;;17.90;13.73;;;5.50;99.90;;;;;;5034695;28;20025;-73
2021/12/17 06:29:58;;;;;;;17.98;13.88;;;5.50;99.90;;;;;;5034831;28;20033;-69
2021/12/17 06:32:24;;;;;;;18.05;12.82;;;5.50;99.90;;;;;;5034763;28;20036;-68
2021/12/17 06:34:51;;;;;;;17.13;12.75;;;5.60;99.90;;;;;;5034612;28;20163;-69
2021/12/17 06:37:18;;;;;;;15.50;12.45;;;5.60;99.90;;;;;;5034704;28;20038;-67
2021/12/17 06:39:44;;;;;;;16.08;12.55;;;5.60;99.90;;;;;;5034605;28;20105;-68
2021/12/17 06:42:11;;;;;;;19.20;12.82;;;5.60;99.90;;;;;;5034538;28;20034;-71
2021/12/17 06:44:41;;;;;;;15.50;12.40;;;5.70;99.90;;;;;;5032965;28;20029;-69
2021/12/17 06:47:10;;;;;;;15.35;12.80;;;5.70;99.90;;;;;;5034674;28;20056;-68
2021/12/17 07:10:41;;;;;;;16.52;11.52;;;5.80;99.90;;;;;;5034177;28;20387;-67
2021/12/17 07:34:43;;;;;;;10.75;8.05;;;5.70;99.90;;;;;;5033810;28;20036;-68
2021/12/17 07:39:34;;;;;;;9.85;8.05;;;5.80;99.90;;;;;;5033803;28;20112;-70
2021/12/17 07:42:00;;;;;;;10.68;8.38;;;5.80;99.90;;;;;;5033584;28;20478;-69
2021/12/17 07:44:26;;;;;;;11.27;8.18;;;5.80;99.90;;;;;;5034135;28;20030;-67
2021/12/17 07:46:51;;;;;;;10.38;8.45;;;5.90;99.90;;;;;;5034035;28;20028;-69
2021/12/17 07:49:18;;;;;;;10.45;8.45;;;5.90;99.90;;;;;;5033663;28;20049;-70
2021/12/17 07:51:44;;;;;;;9.52;8.15;;;5.90;99.90;;;;;;5033951;28;20478;-68
2021/12/17 07:54:09;;;;;;;10.90;7.90;;;5.90;99.90;;;;;;5034490;28;20112;-72
2021/12/17 07:56:37;;;;;;;10.60;8.57;;;6.00;99.90;;;;;;5037687;28;20460;-71
2021/12/17 07:59:09;;;;;;;9.55;7.90;;;6.00;99.90;;;;;;5037713;28;20025;-65
2021/12/17 08:01:36;;;;;;;9.65;8.38;;;6.00;99.90;;;;;;5037621;28;20397;-67
2021/12/17 08:04:03;;;;;;;10.90;8.93;;;6.00;99.90;;;;;;5037593;28;20025;-67
2021/12/17 08:06:29;;;;;;;11.98;9.52;;;6.00;99.90;;;;;;5037641;28;20119;-69
2021/12/17 08:08:55;;;;;;;11.32;8.70;;;6.00;99.90;;;;;;5037804;28;20109;-68
2021/12/17 08:11:22;;;;;;;10.40;8.07;;;6.00;99.90;;;;;;5037360;28;20052;-68
2021/12/17 08:13:48;;;;;;;10.68;8.65;;;5.90;99.90;;;;;;5037160;28;20037;-72
2021/12/17 08:29:42;;;;;;;12.40;8.65;;;6.10;99.90;;;;;;5037238;28;20113;-71
2021/12/17 08:32:08;;;;;;;10.60;8.30;;;6.10;99.90;;;;;;5036293;28;20116;-68
2021/12/17 08:34:34;;;;;;;10.13;8.60;;;6.10;99.90;;;;;;5036863;28;20075;-68
2021/12/17 08:37:01;;;;;;;10.43;7.95;;;6.10;99.90;;;;;;5037657;28;20025;-68
2021/12/17 08:39:29;;;;;;;10.52;7.70;;;6.10;99.90;;;;;;5036752;28;20475;-68
2021/12/17 08:41:55;;;;;;;9.52;8.15;;;6.00;99.90;;;;;;5036843;28;20067;-68
2021/12/17 08:44:22;;;;;;;10.27;7.13;;;6.00;99.70;;;;;;5035399;28;20034;-69
2021/12/17 08:46:48;;;;;;;7.72;5.53;;;5.90;99.50;;;;;;5036873;28;20026;-68
2021/12/17 08:49:14;;;;;;;6.82;4.45;;;5.90;98.20;;;;;;5036801;28;20037;-67
2021/12/17 08:51:42;;;;;;;5.85;4.13;;;5.70;98.10;;;;;;5036878;28;20390;-65
2021/12/17 08:54:08;;;;;;;7.05;3.35;;;5.70;98.40;;;;;;5036718;28;20040;-67
2021/12/17 08:56:42;;;;;;;4.78;3.10;;;5.60;98.10;;;;;;5036627;28;20069;-72
2021/12/17 08:59:08;;;;;;;4.85;3.30;;;5.50;98.10;;;;;;5037010;28;20047;-69
2021/12/17 09:01:34;;;;;;;4.68;3.33;;;5.50;98.60;;;;;;5036325;28;20502;-70
2021/12/17 09:04:00;;;;;;;5.18;3.17;;;5.50;98.40;;;;;;5036712;28;20032;-69
2021/12/17 09:06:28;;;;;;;6.13;3.55;;;5.50;98.20;;;;;;5036805;28;20021;-66
2021/12/17 09:08:57;;;;;;;4.78;3.45;;;5.50;98.50;;;;;;5035291;28;20064;-66
2021/12/17 09:11:26;;;;;;;5.75;3.38;;;5.50;98.30;;;;;;5035126;28;20519;-69
2021/12/17 09:13:53;;;;;;;4.68;3.25;;;5.50;98.30;;;;;;5036202;28;20524;-67
2021/12/17 09:16:22;;;;;;;6.72;4.00;;;5.50;98.10;;;;;;5036227;28;20029;-68
2021/12/17 09:18:49;;;;;;;6.60;3.80;;;5.50;98.20;;;;;;5035022;28;20029;-66
2021/12/17 09:21:15;;;;;;;6.32;3.63;;;5.60;98.10;;;;;;5036010;28;20452;-68
2021/12/17 09:23:41;;;;;;;5.72;3.78;;;5.60;97.40;;;;;;5036196;28;20459;-67
2021/12/17 09:26:06;;;;;;;5.68;3.95;;;5.70;97.10;;;;;;5036054;28;20101;-68
2021/12/17 09:28:33;;;;;;;4.78;3.40;;;5.70;96.70;;;;;;5036313;28;20034;-69
2021/12/17 09:30:59;;;;;;;6.80;3.83;;;5.60;96.40;;;;;;5035811;28;20452;-69
2021/12/17 09:33:28;;;;;;;4.90;3.33;;;5.60;95.90;;;;;;5035892;28;20108;-68
2021/12/17 09:35:53;;;;;;;5.13;3.50;;;5.50;96.00;;;;;;5035783;28;20040;-68
2021/12/17 09:38:20;;;;;;;5.57;4.13;;;5.50;96.40;;;;;;5035852;28;20029;-68
2021/12/17 09:40:46;;;;;;;5.60;4.82;;;5.50;97.00;;;;;;5035811;28;20022;-68
2021/12/17 09:43:14;;;;;;;6.95;4.30;;;5.50;97.10;;;;;;5035675;28;20052;-68
2021/12/17 09:45:40;;;;;;;7.70;5.35;;;5.60;97.00;;;;;;5035828;28;20033;-69
2021/12/17 09:48:05;;;;;;;7.80;5.55;;;5.60;97.40;;;;;;5035845;28;20411;-69
2021/12/17 09:50:31;;;;;;;8.57;6.70;;;5.70;97.20;;;;;;5035704;28;20372;-69
2021/12/17 09:52:57;;;;;;;7.55;6.20;;;5.70;97.20;;;;;;5035775;28;20026;-70
2021/12/17 09:55:24;;;;;;;10.02;7.32;;;5.80;97.20;;;;;;5035536;28;20083;-69
2021/12/17 09:57:50;;;;;;;9.25;7.28;;;5.80;97.10;;;;;;5034396;28;20037;-72
2021/12/17 10:00:21;;;;;;;10.10;7.72;;;5.90;97.50;;;;;;5035611;28;20049;-69
2021/12/17 10:02:48;;;;;;;10.50;7.88;;;5.90;97.50;;;;;;5034401;28;20029;-69
2021/12/17 10:05:23;;;;;;;10.73;7.65;;;5.90;97.60;;;;;;5035439;28;20033;-71
2021/12/17 10:07:57;;;;;;;11.13;8.10;;;5.90;97.60;;;;;;5035386;28;20447;-68
2021/12/17 10:10:35;;;;;;;10.35;8.70;;;6.00;98.00;;;;;;5035711;28;20067;-67
2021/12/17 10:13:19;;;;;;;11.00;8.23;;;6.00;97.40;;;;;;5035096;28;20476;-68
2021/12/17 10:15:49;;;;;;;9.90;8.55;;;6.00;97.50;;;;;;5035172;28;20056;-71
2021/12/17 10:18:18;;;;;;;12.07;8.20;;;6.00;97.70;;;;;;5033649;28;20451;-73
2021/12/17 10:20:54;;;;;;;10.60;8.00;;;6.10;97.90;;;;;;5034909;28;20022;-68
2021/12/17 10:23:22;;;;;;;10.30;8.32;;;6.10;97.80;;;;;;5035715;28;20029;-67
2021/12/17 10:25:48;;;;;;;11.52;8.05;;;6.10;97.80;;;;;;5035044;28;20433;-67
2021/12/17 10:28:16;;;;;;;10.65;8.73;;;6.10;98.20;;;;;;5050215;28;20037;-67
2021/12/17 10:30:45;;;;;;;12.10;9.05;;;6.10;98.10;;;;;;5034885;28;20486;-67
2021/12/17 10:33:18;;;;;;;11.85;9.30;;;6.20;97.90;;;;;;5034872;28;20475;-67
2021/12/17 10:35:47;;;;;;;10.63;8.55;;;6.10;97.60;;;;;;5034981;28;20424;-68
2021/12/17 10:38:16;;;;;;;10.52;8.40;;;6.10;97.80;;;;;;5034695;28;20067;-69
2021/12/17 10:40:48;;;;;;;10.20;9.10;;;6.10;97.80;;;;;;5034697;28;20029;-68
2021/12/17 10:43:25;;;;;;;11.90;8.20;;;6.10;98.10;;;;;;5034846;28;20063;-68
2021/12/17 10:51:21;;;;;;;13.13;10.00;;;6.00;97.80;;;;;;5034504;28;20084;-67
2021/12/17 10:53:53;;;;;;;11.65;8.85;;;6.00;98.10;;;;;;5034514;28;20025;-65
2021/12/17 10:56:33;;;;;;;10.90;8.60;;;6.00;98.30;;;;;;5034574;28;20072;-65
2021/12/17 10:59:15;;;;;;;11.35;8.88;;;6.00;98.70;;;;;;5034521;28;20037;-68
2021/12/17 11:01:48;;;;;;;14.50;9.48;;;6.00;98.60;;;;;;5034288;28;20029;-67
2021/12/17 11:04:20;;;;;;;10.73;9.20;;;6.00;98.80;;;;;;5034371;28;20025;-65
2021/12/17 11:06:48;;;;;;;12.77;9.63;;;6.10;98.90;;;;;;5034081;28;20061;-68
2021/12/17 11:09:46;;;;;;;12.90;10.27;;;6.10;99.00;;;;;;5034471;28;20506;-67
2021/12/17 11:12:32;;;;;;;13.13;9.35;;;6.10;98.70;;;;;;5033703;28;20550;-68
2021/12/17 11:15:12;;;;;;;13.38;9.98;;;6.00;98.80;;;;;;5034188;28;20124;-66
2021/12/17 11:17:39;;;;;;;11.27;9.05;;;6.00;99.00;;;;;;5033977;28;20456;-72
2021/12/17 11:20:11;;;;;;;11.52;8.73;;;6.10;99.00;;;;;;5033986;28;20033;-68
2021/12/17 11:22:39;;;;;;;11.57;8.50;;;6.10;98.50;;;;;;5033799;28;20029;-68
2021/12/17 11:25:05;;;;;;;12.35;8.77;;;6.10;98.20;;;;;;5033908;28;20037;-66
2021/12/17 11:27:32;;;;;;;10.75;8.80;;;6.10;98.20;;;;;;5033946;28;20025;-66
2021/12/17 11:29:59;;;;;;;10.95;8.23;;;6.20;98.20;;;;;;5032998;28;20357;-66
2021/12/17 11:32:24;;;;;;;11.13;8.48;;;6.20;97.70;;;;;;5033805;28;20022;-68
2021/12/17 11:34:50;;;;;;;11.55;8.98;;;6.20;97.70;;;;;;5033724;28;20033;-67
2021/12/17 11:37:18;;;;;;;12.77;8.77;;;6.30;97.70;;;;;;5033687;28;20030;-67
2021/12/17 11:39:52;;;;;;;10.52;9.18;;;6.30;96.90;;;;;;5033805;28;20053;-67
2021/12/17 11:42:24;;;;;;;10.93;8.43;;;6.20;96.90;;;;;;5033840;28;20034;-66
2021/12/17 11:45:23;;;;;;;11.15;8.68;;;6.30;96.90;;;;;;5033433;28;20040;-69
2021/12/17 11:47:41;;;;;;;11.00;8.73;;;6.30;96.40;;;;;;5033883;28;20033;-68
2021/12/17 11:50:10;;;;;;;12.82;9.85;;;6.20;96.30;;;;;;5032676;28;20083;-70
2021/12/17 11:52:45;;;;;;;12.18;8.88;;;6.20;96.50;;;;;;5033907;28;20375;-65
2021/12/17 11:55:28;;;;;;;10.82;9.57;;;6.20;96.30;;;;;;5033709;28;20095;-67
2021/12/17 11:58:00;;;;;;;10.65;8.88;;;6.20;96.30;;;;;;5033611;28;20038;-68
2021/12/17 12:00:32;;;;;;;12.25;9.05;;;6.10;96.20;;;;;;5033905;28;20032;-71
2021/12/17 12:03:20;;;;;;;10.25;9.15;;;6.10;96.50;;;;;;5033680;28;20022;-68
2021/12/17 12:05:56;;;;;;;12.57;8.65;;;6.00;96.50;;;;;;5033493;28;20034;-67
2021/12/17 12:08:50;;;;;;;9.95;7.10;;;6.00;96.50;;;;;;5033586;28;20034;-64
2021/12/17 12:11:23;;;;;;;9.23;6.90;;;5.90;95.90;;;;;;5047629;28;20041;-67
2021/12/17 12:13:51;;;;;;;10.18;7.22;;;5.80;96.30;;;;;;5033190;28;20044;-66
2021/12/17 12:16:26;;;;;;;10.02;7.18;;;5.70;96.80;;;;;;5033378;28;20037;-67
2021/12/17 12:19:07;;;;;;;11.10;8.48;;;5.70;97.20;;;;;;5033478;28;20045;-65
2021/12/17 12:21:36;;;;;;;10.32;7.38;;;5.70;97.70;;;;;;5033316;28;20030;-68
2021/12/17 12:24:14;;;;;;;10.90;7.70;;;5.70;97.50;;;;;;5033100;28;20109;-68
2021/12/17 12:26:49;;;;;;;11.27;8.15;;;5.70;97.90;;;;;;5033191;28;20022;-68
2021/12/17 12:29:21;;;;;;;9.65;8.00;;;5.80;97.80;;;;;;5033207;28;20079;-68
2021/12/17 12:31:51;;;;;;;9.05;6.65;;;5.70;97.60;;;;;;5033249;28;20529;-66
2021/12/17 12:34:18;;;;;;;10.25;7.35;;;5.70;97.30;;;;;;5033372;28;20033;-68
2021/12/17 12:36:51;;;;;;;9.90;7.20;;;5.70;97.30;;;;;;5033306;28;20100;-69
2021/12/17 12:39:32;;;;;;;9.57;7.65;;;5.70;97.40;;;;;;5033432;28;20036;-66
2021/12/17 12:42:18;;;;;;;10.30;7.63;;;5.70;97.50;;;;;;5037480;28;20376;-67
2021/12/17 12:44:44;;;;;;;10.38;7.32;;;5.70;97.70;;;;;;5037244;28;20029;-65
2021/12/17 12:47:23;;;;;;;12.52;7.63;;;5.70;97.40;;;;;;5037074;28;20103;-66
2021/12/17 12:50:06;;;;;;;11.07;7.78;;;5.70;97.20;;;;;;5035678;28;20418;-69
2021/12/17 12:52:38;;;;;;;9.88;7.43;;;5.70;97.00;;;;;;5041010;28;20398;-74
2021/12/17 12:55:07;;;;;;;9.52;7.35;;;5.60;97.10;;;;;;5061657;28;20043;-71
2021/12/17 12:57:39;;;;;;;10.90;7.70;;;5.60;97.40;;;;;;5053360;28;20030;-70
2021/12/17 13:00:13;;;;;;;11.45;8.10;;;5.60;97.50;;;;;;5042656;28;20057;-71
2021/12/17 13:02:41;;;;;;;13.60;9.32;;;5.60;97.60;;;;;;5041822;28;20476;-83
2021/12/17 13:05:09;;;;;;;13.00;9.65;;;5.60;98.00;;;;;;5036328;28;20460;-73
2021/12/17 13:07:48;;;;;;;15.27;10.65;;;5.60;98.30;;;;;;5039840;28;20084;-73
2021/12/17 13:10:26;;;;;;;12.38;9.48;;;5.60;98.40;;;;;;5040312;28;20025;-74
2021/12/17 13:13:03;;;;;;;12.77;8.80;;;5.60;98.20;;;;;;5042093;28;20123;-70
2021/12/17 13:21:33;;;;;;;5.95;4.00;;;5.40;96.50;;;;;;5065654;28;20402;-73
2021/12/17 13:24:16;;;;;;;4.47;2.72;;;5.30;96.10;;;;;;5044195;28;20466;-73
2021/12/17 13:26:54;;;;;;;3.65;2.45;;;5.20;95.40;;;;;;5038375;28;20036;-74
2021/12/17 13:29:24;;;;;;;3.90;2.58;;;5.10;95.00;;;;;;5040967;28;20029;-75
2021/12/17 13:31:53;;;;;;;4.75;2.88;;;5.10;94.90;;;;;;5034433;28;20021;-73
2021/12/17 13:34:37;;;;;;;6.47;3.80;;;5.10;94.70;;;;;;5038399;28;20110;-74
2021/12/17 13:37:12;;;;;;;7.18;4.30;;;5.10;94.50;;;;;;5041782;28;20396;-75
2021/12/17 13:39:40;;;;;;;5.82;3.72;;;5.10;94.30;;;;;;5035526;28;20056;-74
2021/12/17 13:42:08;;;;;;;6.88;4.28;;;5.00;93.90;;;;;;5035529;28;20075;-73
2021/12/17 13:44:41;;;;;;;4.90;3.60;;;5.00;93.80;;;;;;5046909;28;20041;-74
2021/12/17 13:47:13;;;;;;;5.75;3.95;;;5.00;93.70;;;;;;5043947;28;20029;-73
2021/12/17 13:49:50;;;;;;;7.03;5.32;;;5.00;93.80;;;;;;5049530;28;20455;-75
2021/12/17 13:52:20;;;;;;;6.93;5.13;;;4.90;93.90;;;;;;5047445;28;20494;-71
2021/12/17 13:54:46;;;;;;;7.18;5.20;;;4.90;93.90;;;;;;5045664;28;20167;-71
2021/12/17 13:57:16;;;;;;;8.10;6.28;;;4.90;94.20;;;;;;5044065;28;20052;-71
2021/12/17 13:59:44;;;;;;;9.20;6.40;;;4.90;94.40;;;;;;5042754;28;20029;-75
2021/12/17 14:02:13;;;;;;;9.05;6.60;;;4.90;94.40;;;;;;5050478;28;20025;-70
2021/12/17 14:04:40;;;;;;;10.05;7.07;;;4.80;94.60;;;;;;5048457;28;20025;-74
2021/12/17 14:07:08;;;;;;;9.65;6.90;;;4.80;95.00;;;;;;5044670;28;20033;-75
2021/12/17 14:09:33;;;;;;;9.65;6.70;;;4.80;95.40;;;;;;5035370;28;20017;-73
2021/12/17 14:12:26;;;;;;;9.38;5.47;;;4.80;95.60;;;;;;5034767;28;20049;-75
2021/12/17 14:14:57;;;;;;;8.68;6.10;;;4.70;95.50;;;;;;5037866;28;20041;-74
2021/12/17 14:17:23;;;;;;;8.77;5.60;;;4.70;96.30;;;;;;5045132;28;20386;-72
2021/12/17 14:19:50;;;;;;;8.15;5.30;;;4.60;96.90;;;;;;5051321;28;20032;-74
2021/12/17 14:22:27;;;;;;;9.57;5.90;;;4.60;97.00;;;;;;5052720;28;20033;-74
2021/12/17 14:24:54;;;;;;;8.65;5.55;;;4.50;97.30;;;;;;5038507;28;20025;-74
2021/12/17 14:27:20;;;;;;;6.40;3.90;;;4.50;97.60;;;;;;5045457;28;20043;-74
2021/12/17 14:29:46;;;;;;;6.38;4.07;;;4.40;97.60;;;;;;5043060;28;20114;-74
2021/12/17 14:32:16;;;;;;;6.68;4.40;;;4.30;97.60;;;;;;5047325;28;20029;-75
2021/12/17 14:34:42;;;;;;;5.20;3.55;;;4.20;97.60;;;;;;5050071;28;20037;-74
2021/12/17 14:37:08;;;;;;;6.25;3.83;;;4.20;98.00;;;;;;5044678;28;20035;-76
2021/12/17 14:39:36;;;;;;;5.85;4.35;;;4.20;98.40;;;;;;5040452;28;20026;-73
2021/12/17 14:42:05;;;;;;;5.68;4.32;;;4.10;98.70;;;;;;5035597;28;20060;-74
2021/12/17 14:47:14;;;;;;;5.63;4.60;;;4.10;99.30;;;;;;5039678;28;20064;-73
2021/12/17 15:05:44;;;;;;;10.48;7.88;;;4.10;99.90;;;;;;5053747;28;20532;-74
2021/12/17 15:08:10;;;;;;;9.93;7.50;;;4.10;99.90;;;;;;5044428;28;20033;-75
2021/12/17 15:10:36;;;;;;;14.85;9.52;;;4.10;99.90;;;;;;5040616;28;20025;-75
2021/12/17 15:13:02;;;;;;;12.32;8.90;;;4.10;99.90;;;;;;5050838;28;20133;-74
2021/12/17 15:15:35;;;;;;;11.82;9.35;;;4.10;99.90;;;;;;5042779;28;20087;-74
2021/12/17 15:18:03;;;;;;;13.00;9.25;;;4.10;99.90;;;;;;5032720;28;20029;-74
2021/12/17 15:20:31;;;;;;;12.90;10.15;;;4.10;99.90;;;;;;5051129;28;20056;-75
2021/12/17 15:22:59;;;;;;;10.82;8.75;;;4.10;99.90;;;;;;5035745;28;20029;-75
2021/12/17 15:25:27;;;;;;;9.57;7.95;;;4.10;99.90;;;;;;5034039;28;20026;-75
2021/12/17 15:27:53;;;;;;;10.13;7.50;;;4.10;99.90;;;;;;5040129;28;20036;-74
2021/12/17 15:30:34;;;;;;;8.18;6.88;;;4.10;99.90;;;;;;5036867;28;20027;-75
2021/12/17 15:33:00;;;;;;;8.25;6.40;;;4.10;99.90;;;;;;5037487;28;20079;-73
2021/12/17 15:35:27;;;;;;;7.55;5.95;;;4.10;99.90;;;;;;5032144;28;20083;-74
2021/12/17 15:37:54;;;;;;;8.27;6.43;;;4.10;99.90;;;;;;5033868;28;20112;-74
2021/12/17 15:40:21;;;;;;;8.10;6.30;;;4.10;99.90;;;;;;5033482;28;20087;-74
2021/12/17 15:42:48;;;;;;;6.20;4.28;;;4.10;99.90;;;;;;5040410;28;20049;-74
2021/12/17 15:45:15;;;;;;;9.05;5.00;;;4.10;99.90;;;;;;5037590;28;20063;-73
2021/12/17 15:47:41;;;;;;;6.70;4.95;;;4.10;99.90;;;;;;5045386;28;20060;-73
2021/12/17 15:50:10;;;;;;;8.30;5.22;;;4.00;99.90;;;;;;5045981;28;20025;-74
2021/12/17 15:52:43;;;;;;;7.25;4.93;;;4.00;99.90;;;;;;5036281;28;20367;-73
2021/12/17 15:55:09;;;;;;;7.80;5.72;;;4.00;99.90;;;;;;5041835;28;20033;-73
2021/12/17 15:57:35;;;;;;;8.80;5.57;;;3.90;99.90;;;;;;5035275;28;20033;-73
2021/12/17 16:00:01;;;;;;;7.55;5.80;;;3.90;99.90;;;;;;5034517;28;20052;-74
2021/12/17 16:02:26;;;;;;;8.05;5.40;;;3.90;99.90;;;;;;5046027;28;20423;-74
2021/12/17 16:04:52;;;;;;;8.38;5.60;;;3.90;99.90;;;;;;5041920;28;20068;-74
2021/12/17 16:07:17;;;;;;;7.85;5.30;;;3.90;99.90;;;;;;5038221;28;20049;-73
2021/12/17 16:23:01;;;;;;;6.90;5.20;;;3.80;99.90;;;;;;5044236;28;20128;-74
2021/12/17 16:25:27;;;;;;;6.78;4.78;;;3.80;99.90;;;;;;5036981;28;20091;-74
2021/12/17 16:27:53;;;;;;;7.85;4.80;;;3.90;99.90;;;;;;5055631;28;20541;-73
2021/12/17 16:30:18;;;;;;;7.53;5.45;;;3.90;99.90;;;;;;5039151;28;20088;-74
2021/12/17 16:32:44;;;;;;;7.50;5.72;;;3.90;99.90;;;;;;5036072;28;20021;-75
2021/12/17 16:35:10;;;;;;;7.80;5.90;;;4.00;99.90;;;;;;5047071;28;20378;-75
2021/12/17 16:37:35;;;;;;;9.10;6.40;;;4.00;99.90;;;;;;5044734;28;20575;-73
2021/12/17 16:40:04;;;;;;;10.82;7.63;;;4.10;99.90;;;;;;5046041;28;20525;-74
2021/12/17 16:42:29;;;;;;;9.30;6.70;;;4.00;99.90;;;;;;5036848;28;20037;-74